Time;durP1;ratioP1;P1;durP2;ratioP2;P2;SDS_P1;SDS_P2;PMS_P1;PMS_P2;Temp;Humidity;BMP_temperature;BMP_pressure;BME280_temperature;BME280_humidity;BME280_pressure;Samples;Min_cycle;Max_cycle;Signal;HPM_P1;HPM_P2
2023/04/13 00:00:50;;;;;;;7.47;1.37;;;7.80;99.90;;;;;;5092614;28;20190;-77
2023/04/13 00:03:17;;;;;;;4.00;0.97;;;7.70;99.90;;;;;;5092833;28;20240;-77
2023/04/13 00:05:44;;;;;;;6.07;1.07;;;7.70;99.90;;;;;;5092755;28;20143;-78
2023/04/13 00:08:10;;;;;;;7.47;1.20;;;7.70;99.90;;;;;;5093534;28;20648;-77
2023/04/13 00:10:40;;;;;;;6.90;1.83;;;7.60;99.90;;;;;;5092913;28;20180;-77
2023/04/13 00:13:07;;;;;;;8.73;1.47;;;7.70;99.90;;;;;;5091598;28;20533;-78
2023/04/13 00:15:35;;;;;;;6.97;1.60;;;7.60;99.90;;;;;;5091476;28;20267;-77
2023/04/13 00:18:05;;;;;;;8.63;1.40;;;7.60;99.90;;;;;;5092587;28;20174;-77
2023/04/13 00:20:31;;;;;;;7.23;1.30;;;7.60;99.90;;;;;;5093098;28;20194;-77
2023/04/13 00:22:56;;;;;;;11.30;2.37;;;7.60;99.90;;;;;;5092588;28;20162;-78
2023/04/13 00:25:22;;;;;;;10.23;1.37;;;7.60;99.90;;;;;;5092368;28;20173;-77
2023/04/13 00:27:51;;;;;;;5.53;1.60;;;7.60;99.90;;;;;;5091295;28;20151;-76
2023/04/13 00:30:18;;;;;;;7.23;1.67;;;7.70;99.90;;;;;;5090915;28;20172;-77
2023/04/13 00:32:44;;;;;;;8.03;1.83;;;7.80;99.90;;;;;;5092488;28;20630;-77
2023/04/13 00:35:14;;;;;;;6.23;1.43;;;7.90;99.90;;;;;;5091249;28;20166;-77
2023/04/13 00:37:46;;;;;;;6.77;1.07;;;8.00;99.90;;;;;;5092261;28;20151;-78
2023/04/13 00:40:14;;;;;;;5.00;1.20;;;7.90;99.90;;;;;;5091430;28;20225;-78
2023/04/13 00:42:42;;;;;;;3.90;1.20;;;7.80;99.90;;;;;;5093216;28;20589;-81
2023/04/13 00:45:08;;;;;;;2.77;1.00;;;7.60;99.90;;;;;;5091804;28;20167;-79
2023/04/13 00:47:35;;;;;;;8.93;2.33;;;7.50;99.90;;;;;;5091490;28;20688;-78
2023/04/13 00:50:03;;;;;;;7.80;1.60;;;7.50;99.90;;;;;;5091633;28;20231;-80
2023/04/13 00:52:29;;;;;;;5.50;1.57;;;7.40;99.90;;;;;;5091022;28;20174;-78
2023/04/13 00:54:57;;;;;;;4.67;1.67;;;7.40;99.90;;;;;;5090999;28;20159;-78
2023/04/13 00:57:24;;;;;;;6.23;1.40;;;7.50;99.90;;;;;;5090693;28;20635;-80
2023/04/13 00:59:53;;;;;;;9.97;1.30;;;7.50;99.90;;;;;;5091119;28;20187;-78
2023/04/13 01:02:25;;;;;;;9.33;1.60;;;7.50;99.90;;;;;;5090858;28;20170;-79
2023/04/13 01:04:53;;;;;;;6.10;1.47;;;7.40;99.90;;;;;;5090518;28;20230;-79
2023/04/13 01:07:24;;;;;;;10.40;1.83;;;7.60;99.90;;;;;;5090568;28;20646;-79
2023/04/13 01:10:24;;;;;;;6.93;1.80;;;7.60;99.90;;;;;;5091053;28;20175;-79
2023/04/13 01:13:39;;;;;;;9.60;1.83;;;7.60;99.90;;;;;;5092099;28;20174;-79
2023/04/13 01:16:23;;;;;;;5.03;1.40;;;7.50;99.90;;;;;;5038484;28;20290;-80
2023/04/13 01:18:52;;;;;;;6.63;1.70;;;7.50;99.90;;;;;;5092290;28;20168;-77
2023/04/13 01:21:23;;;;;;;6.90;1.30;;;7.50;99.90;;;;;;5090963;28;20742;-81
2023/04/13 01:24:07;;;;;;;9.10;1.50;;;7.50;99.90;;;;;;5092234;28;20185;-79
2023/04/13 01:27:19;;;;;;;4.33;1.37;;;7.60;99.90;;;;;;5090426;28;20170;-79
2023/04/13 01:29:45;;;;;;;6.13;1.40;;;7.70;99.90;;;;;;5091270;28;20636;-80
2023/04/13 01:32:15;;;;;;;5.70;1.07;;;7.70;99.90;;;;;;5094402;28;20235;-78
2023/04/13 01:34:44;;;;;;;6.90;1.40;;;7.60;99.90;;;;;;5094268;28;20182;-80
2023/04/13 01:37:11;;;;;;;8.67;2.10;;;7.60;99.90;;;;;;5094141;28;20207;-79
2023/04/13 01:39:37;;;;;;;8.83;1.93;;;7.60;99.90;;;;;;5094200;28;20269;-79
2023/04/13 01:42:03;;;;;;;5.90;1.53;;;7.70;99.90;;;;;;5093962;28;20248;-80
2023/04/13 01:44:32;;;;;;;7.10;2.03;;;7.70;99.90;;;;;;5094059;28;20230;-81
2023/04/13 01:47:14;;;;;;;9.20;1.17;;;7.70;99.90;;;;;;5094035;28;20584;-81
2023/04/13 01:49:47;;;;;;;5.03;0.90;;;7.50;99.90;;;;;;5094699;28;20617;-81
2023/04/13 01:52:14;;;;;;;3.97;1.23;;;7.40;99.90;;;;;;5094944;28;20165;-81
2023/04/13 01:54:44;;;;;;;4.20;0.80;;;7.40;99.90;;;;;;5095519;28;20178;-79
2023/04/13 01:57:13;;;;;;;4.17;1.03;;;7.40;99.90;;;;;;5095348;28;20255;-80
2023/04/13 01:59:39;;;;;;;3.67;1.30;;;7.50;99.90;;;;;;5095469;28;20173;-82
2023/04/13 02:02:05;;;;;;;6.53;1.23;;;7.60;99.90;;;;;;5095249;28;20198;-81
2023/04/13 02:04:32;;;;;;;6.07;0.87;;;7.60;99.90;;;;;;5095176;28;20254;-78
2023/04/13 02:06:59;;;;;;;4.73;1.23;;;7.60;99.90;;;;;;5094034;28;20178;-80
2023/04/13 02:09:27;;;;;;;3.07;1.20;;;7.70;99.90;;;;;;5093958;28;20169;-80
2023/04/13 02:11:54;;;;;;;3.67;0.90;;;7.60;99.90;;;;;;5093861;28;20173;-79
2023/04/13 02:14:20;;;;;;;3.77;1.00;;;7.70;99.90;;;;;;5094661;28;20174;-79
2023/04/13 02:16:46;;;;;;;4.13;0.60;;;7.60;99.90;;;;;;5094799;28;20185;-79
2023/04/13 02:19:12;;;;;;;1.33;0.73;;;7.60;99.90;;;;;;5094389;28;20162;-79
2023/04/13 02:21:40;;;;;;;2.83;0.90;;;7.70;99.90;;;;;;5093863;28;20548;-79
2023/04/13 02:24:06;;;;;;;2.60;0.90;;;7.80;99.90;;;;;;5093810;28;20157;-79
2023/04/13 02:26:36;;;;;;;1.70;0.60;;;7.70;99.90;;;;;;5093628;28;20692;-80
2023/04/13 02:29:02;;;;;;;4.53;0.90;;;7.70;99.90;;;;;;5093601;28;20208;-79
2023/04/13 02:31:30;;;;;;;4.17;0.90;;;7.70;99.90;;;;;;5093649;28;20174;-80
2023/04/13 02:33:57;;;;;;;4.63;0.80;;;7.60;99.90;;;;;;5094658;28;20154;-80
2023/04/13 02:36:23;;;;;;;5.13;0.77;;;7.70;99.90;;;;;;5094846;28;20685;-80
2023/04/13 02:38:51;;;;;;;3.43;0.90;;;7.70;99.90;;;;;;5093472;28;20261;-80
2023/04/13 02:41:21;;;;;;;3.60;0.87;;;7.80;99.90;;;;;;5092906;28;20712;-79
2023/04/13 02:43:51;;;;;;;4.33;0.80;;;7.70;99.90;;;;;;5093302;28;20539;-79
2023/04/13 02:46:18;;;;;;;4.73;1.33;;;7.70;99.90;;;;;;5093044;28;20205;-78
2023/04/13 02:48:43;;;;;;;4.90;0.90;;;7.70;99.90;;;;;;5093159;28;20231;-80
2023/04/13 02:51:10;;;;;;;4.10;1.00;;;7.70;99.90;;;;;;5093091;28;20182;-79
2023/04/13 02:53:36;;;;;;;3.57;0.80;;;7.70;99.90;;;;;;5093715;28;20543;-79
2023/04/13 02:56:01;;;;;;;4.60;0.93;;;7.50;99.90;;;;;;5092831;28;20242;-79
2023/04/13 02:58:31;;;;;;;3.63;0.87;;;7.70;99.90;;;;;;5092287;28;20626;-77
2023/04/13 03:00:58;;;;;;;2.73;0.70;;;7.80;99.90;;;;;;5092881;28;20209;-79
2023/04/13 03:03:23;;;;;;;2.90;0.80;;;7.60;99.90;;;;;;5092193;28;20177;-78
2023/04/13 03:05:51;;;;;;;3.63;0.93;;;7.50;99.90;;;;;;5092502;28;20177;-81
2023/04/13 03:08:18;;;;;;;2.43;0.73;;;7.60;99.90;;;;;;5092555;28;20248;-79
2023/04/13 03:10:45;;;;;;;3.10;1.07;;;7.60;99.90;;;;;;5092729;28;20166;-80
2023/04/13 03:13:11;;;;;;;2.80;0.90;;;7.40;99.90;;;;;;5094093;28;20639;-79
2023/04/13 03:15:39;;;;;;;3.13;0.70;;;7.60;99.90;;;;;;5092918;28;20173;-77
2023/04/13 03:18:06;;;;;;;1.30;0.70;;;7.70;99.90;;;;;;5094093;28;20174;-79
2023/04/13 03:20:33;;;;;;;4.77;0.97;;;7.80;99.90;;;;;;5092505;28;20299;-77
2023/04/13 03:23:00;;;;;;;1.83;1.00;;;7.70;99.90;;;;;;5092214;28;20262;-77
2023/04/13 03:25:26;;;;;;;1.60;0.80;;;7.70;99.90;;;;;;5092127;28;20201;-79
2023/04/13 03:27:51;;;;;;;4.83;0.70;;;7.70;99.90;;;;;;5093670;28;20638;-79
2023/04/13 03:30:17;;;;;;;2.60;0.77;;;7.80;99.90;;;;;;5093510;28;20270;-78
2023/04/13 03:32:43;;;;;;;2.87;0.97;;;7.60;99.90;;;;;;5093379;28;20166;-78
2023/04/13 03:35:09;;;;;;;4.37;0.87;;;7.50;99.90;;;;;;5092597;28;20173;-78
2023/04/13 03:37:41;;;;;;;1.47;0.70;;;7.40;99.90;;;;;;5092023;28;20177;-78
2023/04/13 03:40:10;;;;;;;1.97;0.70;;;7.50;99.90;;;;;;5091708;28;20734;-80
2023/04/13 03:42:36;;;;;;;2.53;0.83;;;7.60;99.90;;;;;;5093369;28;20143;-78
2023/04/13 03:45:03;;;;;;;2.57;0.80;;;7.50;99.90;;;;;;5091856;28;20181;-79
2023/04/13 03:47:29;;;;;;;4.27;0.90;;;7.50;99.90;;;;;;5093482;28;20173;-80
2023/04/13 03:49:55;;;;;;;3.77;0.90;;;7.70;99.90;;;;;;5090966;28;20166;-79
2023/04/13 03:52:21;;;;;;;2.97;1.23;;;7.70;99.90;;;;;;5091668;28;20207;-79
2023/04/13 03:54:46;;;;;;;3.17;1.10;;;7.60;99.90;;;;;;5093457;28;21047;-78
2023/04/13 03:57:12;;;;;;;3.93;1.00;;;7.50;99.90;;;;;;5091762;28;20682;-81
2023/04/13 03:59:38;;;;;;;4.57;0.90;;;7.50;99.90;;;;;;5091308;28;20175;-77
2023/04/13 04:02:03;;;;;;;4.50;0.93;;;7.60;99.90;;;;;;5091644;28;20161;-80
2023/04/13 04:04:29;;;;;;;3.13;0.90;;;7.40;99.90;;;;;;5091995;28;20261;-79
2023/04/13 04:06:56;;;;;;;5.07;1.00;;;7.40;99.90;;;;;;5091284;28;20608;-79
2023/04/13 04:09:23;;;;;;;5.77;1.20;;;7.50;99.90;;;;;;5091804;28;20157;-79
2023/04/13 04:11:49;;;;;;;4.27;1.10;;;7.60;99.90;;;;;;5092797;28;20571;-78
2023/04/13 04:14:14;;;;;;;2.07;0.93;;;7.50;99.90;;;;;;5092658;28;20190;-78
2023/04/13 04:16:40;;;;;;;3.73;1.00;;;7.50;99.90;;;;;;5092224;28;20189;-78
2023/04/13 04:19:06;;;;;;;6.00;1.70;;;7.60;99.90;;;;;;5091735;28;20170;-78
2023/04/13 04:21:34;;;;;;;4.20;1.37;;;7.70;99.90;;;;;;5092877;28;20557;-78
2023/04/13 04:24:01;;;;;;;4.37;1.30;;;7.70;99.90;;;;;;5093398;28;20173;-78
2023/04/13 04:26:28;;;;;;;4.60;1.30;;;7.60;99.90;;;;;;5093111;28;20185;-78
2023/04/13 04:29:01;;;;;;;5.33;1.37;;;7.50;99.90;;;;;;5092760;28;20234;-77
2023/04/13 04:31:33;;;;;;;5.77;1.63;;;7.50;99.90;;;;;;5091346;28;20180;-78
2023/04/13 04:34:02;;;;;;;5.23;1.00;;;7.50;99.90;;;;;;5091392;28;20253;-78
2023/04/13 04:36:28;;;;;;;5.37;1.17;;;7.30;99.90;;;;;;5091215;28;20190;-78
2023/04/13 04:38:56;;;;;;;6.73;1.40;;;7.50;99.90;;;;;;5091287;28;20201;-78
2023/04/13 04:41:24;;;;;;;4.30;1.50;;;7.80;99.90;;;;;;5092411;28;20202;-78
2023/04/13 04:43:50;;;;;;;5.73;1.40;;;7.70;99.90;;;;;;5092186;28;20162;-76
2023/04/13 04:46:15;;;;;;;5.60;1.40;;;7.60;99.90;;;;;;5090572;28;20507;-78
2023/04/13 04:48:41;;;;;;;4.83;1.17;;;7.50;99.90;;;;;;5092455;28;20585;-79
2023/04/13 04:51:08;;;;;;;4.53;1.23;;;7.60;99.90;;;;;;5090703;28;20650;-78
2023/04/13 04:53:34;;;;;;;3.23;1.37;;;7.80;99.90;;;;;;5092078;28;20170;-79
2023/04/13 04:56:00;;;;;;;5.13;1.67;;;7.90;99.90;;;;;;5091172;28;20190;-80
2023/04/13 04:58:27;;;;;;;8.10;1.40;;;7.90;99.90;;;;;;5092375;28;20170;-79
2023/04/13 05:00:55;;;;;;;4.37;1.10;;;7.80;99.90;;;;;;5090066;28;20232;-78
2023/04/13 05:03:21;;;;;;;2.67;0.93;;;7.80;99.90;;;;;;5093595;28;20178;-78
2023/04/13 05:05:49;;;;;;;3.50;1.10;;;7.90;99.90;;;;;;5096141;28;20163;-78
2023/04/13 05:08:19;;;;;;;6.23;1.63;;;8.00;99.90;;;;;;5095693;28;20165;-78
2023/04/13 05:10:47;;;;;;;5.70;2.07;;;7.90;99.90;;;;;;5096618;28;20158;-80
2023/04/13 05:13:30;;;;;;;5.07;1.60;;;8.00;99.90;;;;;;5095305;28;20196;-79
2023/04/13 05:15:59;;;;;;;5.50;1.60;;;7.90;99.90;;;;;;5096468;28;20162;-78
2023/04/13 05:18:46;;;;;;;5.57;2.10;;;7.90;99.90;;;;;;5095079;28;20162;-78
2023/04/13 05:24:34;;;;;;;7.83;1.40;;;8.00;99.90;;;;;;5096347;28;20550;-78
2023/04/13 05:27:01;;;;;;;7.27;1.20;;;8.00;99.90;;;;;;5094930;28;20155;-77
2023/04/13 05:29:30;;;;;;;10.03;1.30;;;8.00;99.90;;;;;;5096489;28;20158;-77
2023/04/13 05:32:04;;;;;;;4.33;1.03;;;8.00;99.90;;;;;;5094645;28;20533;-77
2023/04/13 05:34:32;;;;;;;6.67;1.50;;;8.10;99.90;;;;;;5094944;28;20536;-78
2023/04/13 05:37:07;;;;;;;5.80;1.60;;;8.10;99.90;;;;;;5094142;28;20174;-77
2023/04/13 05:39:35;;;;;;;10.67;1.83;;;8.10;99.90;;;;;;5094178;28;20158;-78
2023/04/13 05:42:06;;;;;;;6.57;1.23;;;8.00;99.90;;;;;;5095955;28;20175;-77
2023/04/13 05:44:47;;;;;;;7.20;1.50;;;8.10;99.90;;;;;;5096201;28;20154;-77
2023/04/13 05:47:23;;;;;;;8.33;2.20;;;8.10;99.90;;;;;;5096112;28;20241;-77
2023/04/13 05:49:51;;;;;;;7.30;1.87;;;8.20;99.90;;;;;;5094957;28;20161;-77
2023/04/13 05:52:21;;;;;;;8.33;1.93;;;8.30;99.90;;;;;;5096077;28;20166;-78
2023/04/13 05:54:49;;;;;;;10.17;2.33;;;8.50;99.90;;;;;;5095958;28;20229;-79
2023/04/13 05:57:21;;;;;;;9.37;1.60;;;8.50;99.90;;;;;;5095615;28;20150;-77
2023/04/13 05:59:47;;;;;;;9.00;2.20;;;8.60;99.90;;;;;;5094327;28;20150;-80
2023/04/13 06:02:14;;;;;;;12.33;2.17;;;8.70;99.90;;;;;;5094261;28;20162;-77
2023/04/13 06:04:44;;;;;;;12.90;2.70;;;8.60;99.90;;;;;;5095496;28;20612;-78
2023/04/13 06:07:16;;;;;;;11.63;2.33;;;8.50;99.90;;;;;;5095540;28;20246;-77
2023/04/13 06:09:51;;;;;;;9.00;1.87;;;8.60;99.90;;;;;;5096336;28;20272;-77
2023/04/13 06:12:30;;;;;;;7.20;1.87;;;8.80;99.90;;;;;;5095984;28;20158;-77
2023/04/13 06:15:05;;;;;;;9.10;2.20;;;8.90;99.90;;;;;;5081432;28;20706;-78
2023/04/13 06:17:51;;;;;;;14.67;2.17;;;8.90;99.90;;;;;;5094494;28;20166;-78
2023/04/13 06:20:20;;;;;;;13.27;2.77;;;8.90;99.90;;;;;;5075236;28;20195;-78
2023/04/13 06:22:46;;;;;;;14.37;2.80;;;8.90;99.90;;;;;;5073599;28;20273;-78
2023/04/13 06:25:13;;;;;;;9.63;2.20;;;8.90;99.90;;;;;;5084977;28;20169;-77
2023/04/13 06:27:42;;;;;;;11.90;2.80;;;8.80;99.90;;;;;;5093147;28;20196;-77
2023/04/13 06:30:09;;;;;;;11.77;2.57;;;8.70;99.90;;;;;;5094395;28;20650;-77
2023/04/13 06:32:35;;;;;;;11.73;2.90;;;8.90;99.90;;;;;;5092958;28;20575;-76
2023/04/13 06:35:02;;;;;;;13.77;2.70;;;9.00;99.90;;;;;;5092782;28;20162;-78
2023/04/13 06:37:29;;;;;;;15.10;2.90;;;8.90;99.90;;;;;;5092581;28;20654;-78
2023/04/13 06:39:56;;;;;;;14.37;2.50;;;8.90;99.90;;;;;;5093768;28;20182;-77
2023/04/13 06:42:22;;;;;;;13.07;2.60;;;8.90;99.90;;;;;;5094775;28;20683;-78
2023/04/13 06:44:49;;;;;;;11.80;3.07;;;8.90;99.90;;;;;;5094727;28;20251;-77
2023/04/13 06:47:15;;;;;;;9.80;3.27;;;9.10;99.90;;;;;;5093200;28;20172;-77
2023/04/13 06:49:41;;;;;;;12.43;2.80;;;8.90;99.90;;;;;;5092958;28;20166;-77
2023/04/13 06:52:07;;;;;;;11.07;2.30;;;9.00;99.90;;;;;;5092954;28;20167;-76
2023/04/13 06:54:34;;;;;;;11.10;2.60;;;9.10;99.90;;;;;;5094004;28;20258;-78
2023/04/13 06:57:00;;;;;;;14.87;2.67;;;9.10;99.90;;;;;;5094268;28;20163;-77
2023/04/13 06:59:26;;;;;;;14.07;3.27;;;9.00;99.90;;;;;;5094316;28;20162;-78
2023/04/13 07:01:52;;;;;;;10.77;2.27;;;9.00;99.90;;;;;;5094184;28;20201;-77
2023/04/13 07:04:18;;;;;;;9.83;2.33;;;9.10;99.90;;;;;;5094287;28;20158;-77
2023/04/13 07:06:45;;;;;;;6.57;2.10;;;9.10;99.90;;;;;;5094010;28;20581;-77
2023/04/13 07:09:11;;;;;;;13.20;2.93;;;9.10;99.90;;;;;;5094236;28;20166;-78
2023/04/13 07:11:37;;;;;;;14.23;2.30;;;9.10;99.90;;;;;;5093129;28;20174;-76
2023/04/13 07:14:04;;;;;;;12.57;3.03;;;9.10;99.90;;;;;;5092511;28;20261;-76
2023/04/13 07:16:29;;;;;;;9.17;2.40;;;9.10;99.90;;;;;;5093886;28;20529;-76
2023/04/13 07:18:55;;;;;;;17.10;2.50;;;9.30;99.90;;;;;;5092446;28;20169;-75
2023/04/13 07:21:21;;;;;;;8.90;1.83;;;9.40;99.90;;;;;;5092484;28;20558;-75
2023/04/13 07:23:46;;;;;;;15.17;3.17;;;9.40;99.90;;;;;;5092183;28;20158;-76
2023/04/13 07:26:13;;;;;;;10.87;2.33;;;9.70;99.90;;;;;;5093059;28;20527;-74
2023/04/13 07:28:39;;;;;;;13.00;2.60;;;9.80;99.90;;;;;;5092231;28;20254;-76
2023/04/13 07:31:05;;;;;;;12.23;2.43;;;9.90;99.90;;;;;;5092257;28;20261;-76
2023/04/13 07:33:31;;;;;;;21.53;2.90;;;9.90;99.90;;;;;;5093736;28;20167;-76
2023/04/13 07:35:57;;;;;;;10.73;2.30;;;10.00;99.90;;;;;;5092168;28;20166;-75
2023/04/13 07:38:24;;;;;;;12.87;2.20;;;10.10;99.90;;;;;;5093626;28;20174;-75
2023/04/13 07:40:50;;;;;;;13.03;2.30;;;10.10;99.90;;;;;;5093185;28;20201;-75
2023/04/13 07:43:16;;;;;;;14.67;2.27;;;10.10;99.90;;;;;;5093217;28;20163;-75
2023/04/13 07:45:43;;;;;;;17.30;3.10;;;10.00;99.90;;;;;;5093129;28;20698;-75
2023/04/13 07:48:09;;;;;;;15.70;2.53;;;10.10;99.90;;;;;;5091833;28;20584;-75
2023/04/13 07:50:42;;;;;;;12.10;2.63;;;9.80;99.90;;;;;;5093309;28;20176;-75
2023/04/13 07:53:09;;;;;;;15.40;2.40;;;10.00;99.90;;;;;;5093143;28;20578;-77
2023/04/13 07:55:37;;;;;;;8.97;1.90;;;10.10;99.90;;;;;;5091735;28;20527;-76
2023/04/13 07:58:03;;;;;;;10.63;2.30;;;10.20;99.90;;;;;;5093019;28;20151;-76
2023/04/13 08:00:30;;;;;;;11.60;2.50;;;10.30;99.90;;;;;;5091572;28;20693;-75
2023/04/13 08:02:56;;;;;;;13.63;2.50;;;10.30;99.90;;;;;;5091676;28;20729;-74
2023/04/13 08:05:22;;;;;;;10.53;1.87;;;10.20;99.90;;;;;;5092838;28;20195;-76
2023/04/13 08:07:48;;;;;;;15.60;2.57;;;10.30;99.90;;;;;;5091228;28;20308;-74
2023/04/13 08:10:14;;;;;;;11.43;2.43;;;10.40;99.90;;;;;;5093267;28;20620;-76
2023/04/13 08:12:39;;;;;;;13.83;2.13;;;10.50;99.90;;;;;;5091711;28;20202;-76
2023/04/13 08:15:06;;;;;;;9.03;2.57;;;10.60;99.90;;;;;;5091686;28;20170;-75
2023/04/13 08:17:32;;;;;;;10.40;2.00;;;10.60;99.90;;;;;;5092575;28;20167;-75
2023/04/13 08:19:58;;;;;;;9.13;2.10;;;10.70;99.90;;;;;;5091459;28;20209;-77
2023/04/13 08:22:23;;;;;;;11.37;2.33;;;10.80;99.90;;;;;;5091257;28;20625;-75
2023/04/13 08:24:52;;;;;;;13.50;2.00;;;10.80;99.90;;;;;;5091611;28;20162;-75
2023/04/13 08:27:19;;;;;;;11.37;2.63;;;11.10;99.90;;;;;;5091653;28;20155;-77
2023/04/13 08:29:45;;;;;;;13.37;3.10;;;11.20;99.90;;;;;;5091394;28;20650;-76
2023/04/13 08:32:11;;;;;;;7.13;2.17;;;11.20;99.90;;;;;;5091238;28;20693;-76
2023/04/13 08:34:37;;;;;;;18.10;3.33;;;11.30;99.90;;;;;;5091478;28;20166;-75
2023/04/13 08:37:02;;;;;;;10.47;1.97;;;11.40;99.90;;;;;;5093377;28;20206;-76
2023/04/13 08:39:28;;;;;;;12.47;2.50;;;11.10;99.90;;;;;;5095711;28;20173;-77
2023/04/13 08:41:55;;;;;;;11.23;2.77;;;11.00;99.90;;;;;;5096811;28;20728;-76
2023/04/13 08:44:22;;;;;;;9.73;2.10;;;11.20;99.90;;;;;;5096855;28;20164;-76
2023/04/13 08:46:49;;;;;;;8.60;1.80;;;11.10;99.90;;;;;;5095525;28;20159;-74
2023/04/13 08:49:15;;;;;;;9.73;2.10;;;11.10;99.90;;;;;;5095358;28;20160;-77
2023/04/13 08:51:44;;;;;;;11.87;2.07;;;11.10;99.90;;;;;;5096741;28;20550;-77
2023/04/13 08:54:11;;;;;;;9.70;1.90;;;11.00;99.90;;;;;;5096596;28;20151;-75
2023/04/13 08:56:40;;;;;;;12.33;2.30;;;10.70;99.90;;;;;;5094956;28;20650;-75
2023/04/13 08:59:07;;;;;;;11.07;1.77;;;10.70;99.90;;;;;;5096535;28;20640;-75
2023/04/13 09:01:36;;;;;;;10.83;1.90;;;10.90;99.90;;;;;;5096540;28;20221;-76
2023/04/13 09:04:11;;;;;;;8.90;1.93;;;11.00;99.90;;;;;;5095439;28;20580;-75
2023/04/13 09:06:39;;;;;;;8.80;2.17;;;11.10;99.90;;;;;;5096294;28;20151;-76
2023/04/13 09:09:10;;;;;;;10.73;2.53;;;11.20;99.90;;;;;;5096235;28;20250;-76
2023/04/13 09:11:36;;;;;;;11.20;2.10;;;11.40;99.90;;;;;;5096468;28;20210;-75
2023/04/13 09:14:03;;;;;;;12.83;2.20;;;11.50;99.90;;;;;;5096371;28;20143;-75
2023/04/13 09:16:37;;;;;;;10.80;1.90;;;11.60;99.90;;;;;;5094846;28;20605;-75
2023/04/13 09:19:03;;;;;;;12.97;2.37;;;11.40;99.90;;;;;;5095632;28;20245;-76
2023/04/13 09:21:38;;;;;;;12.13;2.63;;;11.40;99.90;;;;;;5096252;28;20606;-75
2023/04/13 09:24:06;;;;;;;7.07;1.70;;;11.70;99.90;;;;;;5096287;28;20566;-75
2023/04/13 09:26:42;;;;;;;11.50;2.03;;;11.80;99.90;;;;;;5096394;28;20200;-75
2023/04/13 09:29:19;;;;;;;8.97;1.80;;;11.80;99.90;;;;;;5095221;28;20174;-75
2023/04/13 09:31:46;;;;;;;11.07;2.13;;;11.60;99.90;;;;;;5096514;28;20158;-75
2023/04/13 09:34:14;;;;;;;14.27;2.27;;;11.70;99.90;;;;;;5094946;28;20182;-75
2023/04/13 09:36:41;;;;;;;10.83;2.27;;;12.00;99.90;;;;;;5096247;28;20240;-76
2023/04/13 09:39:07;;;;;;;9.10;2.10;;;12.20;99.90;;;;;;5095981;28;20173;-74
2023/04/13 09:41:37;;;;;;;10.73;1.77;;;12.40;99.90;;;;;;5096157;28;20263;-75
2023/04/13 09:44:16;;;;;;;11.23;1.90;;;12.50;99.90;;;;;;5095457;28;20167;-76
2023/04/13 09:47:02;;;;;;;12.13;2.50;;;12.50;99.90;;;;;;5095853;28;20150;-76
2023/04/13 09:49:41;;;;;;;14.10;2.17;;;12.70;99.90;;;;;;5094898;28;20166;-76
2023/04/13 09:52:24;;;;;;;11.30;2.60;;;12.50;99.90;;;;;;5094616;28;20643;-74
2023/04/13 09:54:56;;;;;;;8.77;1.83;;;12.70;99.90;;;;;;5095763;28;20164;-75
2023/04/13 09:57:29;;;;;;;14.20;2.70;;;12.70;99.90;;;;;;5094116;28;20169;-75
2023/04/13 09:59:59;;;;;;;7.63;2.10;;;12.80;99.90;;;;;;5095380;28;20245;-75
2023/04/13 10:02:26;;;;;;;10.53;1.80;;;12.90;99.90;;;;;;5094130;28;20643;-75
2023/04/13 10:04:54;;;;;;;11.20;2.20;;;12.60;99.90;;;;;;5094132;28;20174;-76
2023/04/13 10:07:25;;;;;;;8.73;1.93;;;12.60;99.90;;;;;;5095235;28;20654;-75
2023/04/13 10:09:52;;;;;;;8.50;1.63;;;12.20;99.90;;;;;;5094145;28;20253;-76
2023/04/13 10:12:18;;;;;;;7.07;1.70;;;12.40;99.90;;;;;;5093865;28;20156;-74
2023/04/13 10:14:47;;;;;;;9.30;2.00;;;12.40;99.90;;;;;;5094973;28;20634;-74
2023/04/13 10:17:30;;;;;;;9.30;1.80;;;12.20;99.90;;;;;;5095006;28;20556;-75
2023/04/13 10:20:06;;;;;;;6.23;1.73;;;12.50;99.90;;;;;;5093570;28;20597;-75
2023/04/13 10:22:32;;;;;;;8.37;2.37;;;12.50;99.90;;;;;;5095996;28;20178;-76
2023/04/13 10:24:59;;;;;;;13.23;2.30;;;12.40;99.90;;;;;;5095087;28;20157;-76
2023/04/13 10:27:27;;;;;;;9.10;2.63;;;12.30;99.90;;;;;;5093325;28;20151;-75
2023/04/13 10:29:53;;;;;;;11.67;1.83;;;12.20;99.90;;;;;;5094499;28;20191;-74
2023/04/13 10:32:24;;;;;;;9.97;2.30;;;12.40;99.90;;;;;;5093018;28;20169;-75
2023/04/13 10:34:51;;;;;;;13.57;2.33;;;12.50;99.90;;;;;;5094349;28;20249;-75
2023/04/13 10:37:21;;;;;;;8.37;2.07;;;12.50;99.90;;;;;;5094471;28;20615;-74
2023/04/13 10:39:48;;;;;;;10.30;1.83;;;12.70;99.90;;;;;;5094101;28;20176;-74
2023/04/13 10:42:14;;;;;;;9.63;1.87;;;12.70;99.90;;;;;;5093283;28;20585;-76
2023/04/13 10:44:51;;;;;;;9.50;2.30;;;12.70;99.90;;;;;;5094491;28;20191;-76
2023/04/13 10:47:20;;;;;;;8.43;1.70;;;12.80;99.90;;;;;;5093031;28;20169;-75
2023/04/13 10:49:47;;;;;;;9.43;2.10;;;13.10;99.90;;;;;;5093559;28;20199;-75
2023/04/13 10:52:16;;;;;;;8.10;2.27;;;13.20;99.90;;;;;;5094390;28;20492;-75
2023/04/13 10:54:44;;;;;;;5.00;1.13;;;13.30;99.90;;;;;;5093118;28;20213;-76
2023/04/13 10:57:11;;;;;;;18.67;1.90;;;13.40;99.90;;;;;;5092932;28;20336;-75
2023/04/13 10:59:48;;;;;;;13.60;1.90;;;13.70;99.90;;;;;;5093510;28;20631;-76
2023/04/13 11:02:16;;;;;;;12.27;1.90;;;13.70;99.70;;;;;;5094336;28;20498;-75
2023/04/13 11:04:47;;;;;;;7.13;1.27;;;13.50;99.90;;;;;;5092904;28;20188;-75
2023/04/13 11:07:22;;;;;;;12.37;2.27;;;13.40;99.90;;;;;;5094167;28;20255;-74
2023/04/13 11:09:51;;;;;;;8.13;1.30;;;13.20;99.90;;;;;;5094153;28;20175;-74
2023/04/13 11:12:18;;;;;;;8.60;1.47;;;13.10;99.90;;;;;;5093727;28;20223;-75
2023/04/13 11:14:48;;;;;;;8.63;1.97;;;13.10;99.90;;;;;;5093499;28;20166;-75
2023/04/13 11:17:16;;;;;;;9.23;2.23;;;13.20;99.90;;;;;;5093635;28;20257;-76
2023/04/13 11:19:46;;;;;;;10.73;1.97;;;13.60;99.90;;;;;;5093536;28;20197;-76
2023/04/13 11:22:17;;;;;;;8.47;1.80;;;14.10;99.90;;;;;;5093612;28;20638;-74
2023/04/13 11:24:45;;;;;;;6.20;1.60;;;14.30;99.90;;;;;;5092424;28;20158;-75
2023/04/13 11:27:24;;;;;;;7.30;1.60;;;14.50;98.80;;;;;;5093620;28;20491;-74
2023/04/13 11:30:06;;;;;;;7.80;1.70;;;14.60;98.60;;;;;;5091978;28;20213;-76
2023/04/13 11:32:33;;;;;;;11.53;1.60;;;15.20;97.30;;;;;;5093652;28;20252;-74
2023/04/13 11:35:09;;;;;;;8.67;1.27;;;15.00;95.50;;;;;;5093777;28;20147;-75
2023/04/13 11:37:44;;;;;;;5.23;1.37;;;14.60;95.10;;;;;;5092325;28;20170;-76
2023/04/13 11:40:16;;;;;;;4.33;1.30;;;14.50;96.70;;;;;;5093584;28;20534;-74
2023/04/13 11:42:43;;;;;;;7.00;1.53;;;14.60;95.90;;;;;;5093476;28;20178;-75
2023/04/13 11:45:10;;;;;;;5.40;1.13;;;14.80;94.80;;;;;;5093072;28;20188;-75
2023/04/13 11:47:37;;;;;;;10.10;1.43;;;14.80;94.60;;;;;;5091836;28;20166;-75
2023/04/13 11:50:04;;;;;;;7.57;1.60;;;14.60;94.20;;;;;;5091716;28;20542;-74
2023/04/13 11:52:31;;;;;;;6.90;1.33;;;14.70;94.40;;;;;;5091734;28;20213;-74
2023/04/13 11:54:58;;;;;;;2.37;0.70;;;15.10;94.10;;;;;;5092932;28;20195;-74
2023/04/13 11:57:24;;;;;;;5.43;1.63;;;15.10;93.60;;;;;;5092839;28;20173;-75
2023/04/13 11:59:53;;;;;;;10.03;1.60;;;15.00;94.10;;;;;;5090982;28;20177;-75
2023/04/13 12:02:27;;;;;;;8.67;1.30;;;15.50;93.50;;;;;;5091142;28;20262;-75
2023/04/13 12:04:57;;;;;;;8.70;1.33;;;16.00;92.20;;;;;;5092549;28;20297;-74
2023/04/13 12:07:26;;;;;;;3.30;1.03;;;16.00;92.50;;;;;;5092459;28;20650;-76
2023/04/13 12:09:52;;;;;;;6.57;1.37;;;16.50;90.60;;;;;;5091156;28;20176;-75
2023/04/13 12:12:21;;;;;;;4.10;1.23;;;16.80;90.60;;;;;;5090612;28;20617;-76
2023/04/13 12:14:54;;;;;;;9.40;1.40;;;17.00;90.10;;;;;;5093180;28;20163;-75
2023/04/13 12:17:19;;;;;;;5.00;1.50;;;17.30;90.10;;;;;;5093523;28;20194;-74
2023/04/13 12:19:52;;;;;;;5.13;1.30;;;17.20;88.70;;;;;;5093482;28;20185;-75
2023/04/13 12:22:19;;;;;;;15.30;1.73;;;17.10;87.60;;;;;;5093416;28;20548;-75
2023/04/13 12:24:51;;;;;;;3.33;1.33;;;16.70;87.20;;;;;;5093739;28;20221;-77
2023/04/13 12:27:17;;;;;;;7.73;2.10;;;16.50;89.00;;;;;;5092805;28;20675;-76
2023/04/13 12:29:42;;;;;;;5.40;1.37;;;16.30;89.30;;;;;;5093813;28;20163;-77
2023/04/13 12:32:15;;;;;;;3.93;1.10;;;16.00;90.40;;;;;;5091499;28;20170;-78
2023/04/13 12:34:42;;;;;;;5.43;0.93;;;16.00;90.30;;;;;;5093231;28;20170;-77
2023/04/13 12:37:09;;;;;;;7.53;1.27;;;15.90;89.30;;;;;;5092780;28;20163;-78
2023/04/13 12:39:35;;;;;;;8.27;1.30;;;15.60;90.20;;;;;;5091245;28;20170;-77
2023/04/13 12:42:01;;;;;;;4.40;1.10;;;15.40;90.60;;;;;;5091963;28;20250;-77
2023/04/13 12:44:28;;;;;;;4.70;0.87;;;15.40;91.00;;;;;;5092379;28;20654;-77
2023/04/13 12:46:53;;;;;;;3.47;1.00;;;15.50;91.40;;;;;;5092258;28;20604;-78
2023/04/13 12:49:19;;;;;;;5.77;1.20;;;16.30;90.30;;;;;;5091086;28;20167;-78
2023/04/13 12:51:45;;;;;;;7.37;1.43;;;16.50;90.10;;;;;;5092340;28;20188;-78
2023/04/13 12:54:12;;;;;;;2.73;1.00;;;16.90;90.20;;;;;;5092062;28;20174;-78
2023/04/13 12:56:40;;;;;;;4.97;0.90;;;17.10;86.20;;;;;;5092200;28;20240;-77
2023/04/13 12:59:06;;;;;;;4.23;1.33;;;17.30;86.50;;;;;;5091154;28;20544;-77
2023/04/13 13:01:36;;;;;;;7.10;1.20;;;17.80;83.20;;;;;;5091960;28;20204;-76